Accueil
METAR-TAF:

METAR-TAF

Aéroports :

Saint-Eustache, Antilles néerlandaises

latitude: 17-29N, longitude: 062-59W, altitude: 38 m

Observation

Le bulletin a été fait il y a 25 minutes, à 05:55 UTC
Vent 13 kt de est/nord-est
Température 25°C
Humidité 79%
Pression 1017 hPa

METAR: TNCE 180555Z AUTO 07013KT //// // ///////// 25/21 Q1017 RE//

Heure: 02:20 (06:20 UTC)


TAF: absent

Observations et prévisions météorologiques de plus de 4000 aéroports (messages METAR et TAF).

Les stations disponibles sont représentées par des disques jaunes et rouges sur la carte.

Passer la souris dessus pour voir le nom de la station.

Cliquer dessus pour voir les observations et prévisions météorologiques.

Pour changer de carte: cliquez sur les boutons verts avec une croix noire pour zoomer, sur le bouton vert avec un tiret pour effectuer un zoom arrière, ou sur les flèches vertes pour les cartes adjacentes.


METAR-TAF: